Time;durP1;ratioP1;P1;durP2;ratioP2;P2;SDS_P1;SDS_P2;PMS_P1;PMS_P2;Temp;Humidity;BMP_temperature;BMP_pressure;BME280_temperature;BME280_humidity;BME280_pressure;Samples;Min_cycle;Max_cycle;Signal;HPM_P1;HPM_P2
2022/07/23 00:01:31;;;;;;;5.13;4.43;;;;;;;;;;5030151;28;20621;-62
2022/07/23 00:03:57;;;;;;;5.80;4.93;;;;;;;;;;5008768;28;20164;-61
2022/07/23 00:06:27;;;;;;;5.30;4.90;;;;;;;;;;5003365;28;20181;-61
2022/07/23 00:08:53;;;;;;;5.27;4.93;;;;;;;;;;5027319;28;20220;-62
2022/07/23 00:11:19;;;;;;;4.83;4.47;;;;;;;;;;5026835;28;20236;-59
2022/07/23 00:13:45;;;;;;;4.80;4.33;;;;;;;;;;5028034;28;20174;-61
2022/07/23 00:16:11;;;;;;;5.37;4.87;;;;;;;;;;5036559;28;20181;-59
2022/07/23 00:18:37;;;;;;;5.23;4.87;;;;;;;;;;5027759;28;20198;-60
2022/07/23 00:21:04;;;;;;;4.97;4.57;;;;;;;;;;5036848;28;20251;-63
2022/07/23 00:23:30;;;;;;;5.40;4.90;;;;;;;;;;5007652;28;20257;-61
2022/07/23 00:25:57;;;;;;;5.13;4.57;;;;;;;;;;4999524;28;20973;-62
2022/07/23 00:28:23;;;;;;;4.97;4.57;;;;;;;;;;5027744;28;20180;-61
2022/07/23 00:30:49;;;;;;;4.90;4.47;;;;;;;;;;5028868;28;20538;-60
2022/07/23 00:33:15;;;;;;;6.27;5.77;;;;;;;;;;5009492;28;20178;-62
2022/07/23 00:35:41;;;;;;;4.77;4.47;;;;;;;;;;5032888;28;20258;-64
2022/07/23 00:38:11;;;;;;;4.40;4.10;;;;;;;;;;4995972;28;20677;-62
2022/07/23 00:40:37;;;;;;;5.17;4.67;;;;;;;;;;5017658;28;20207;-63
2022/07/23 00:43:04;;;;;;;4.97;4.47;;;;;;;;;;5015645;28;20188;-65
2022/07/23 00:45:30;;;;;;;5.23;4.83;;;;;;;;;;5014672;28;20170;-65
2022/07/23 00:47:56;;;;;;;5.30;4.80;;;;;;;;;;5000131;28;20275;-64
2022/07/23 00:50:22;;;;;;;5.67;5.17;;;;;;;;;;5011147;28;20189;-63
2022/07/23 00:52:48;;;;;;;4.80;4.40;;;;;;;;;;5019692;28;20259;-62
2022/07/23 00:55:15;;;;;;;5.23;4.80;;;;;;;;;;4992531;28;20556;-61
2022/07/23 00:57:42;;;;;;;6.10;5.50;;;;;;;;;;5021786;28;20200;-65
2022/07/23 01:00:09;;;;;;;4.87;4.37;;;;;;;;;;5008899;28;20175;-65
2022/07/23 01:02:35;;;;;;;4.90;4.60;;;;;;;;;;5022838;28;20184;-67
2022/07/23 01:05:01;;;;;;;4.50;4.20;;;;;;;;;;4990065;28;20266;-61
2022/07/23 01:07:28;;;;;;;4.30;4.00;;;;;;;;;;5025154;28;20176;-64
2022/07/23 01:09:55;;;;;;;4.53;4.23;;;;;;;;;;4988880;28;20179;-66
2022/07/23 01:12:21;;;;;;;4.87;4.43;;;;;;;;;;5019388;28;20180;-65
2022/07/23 01:14:54;;;;;;;4.93;4.60;;;;;;;;;;5007763;28;20700;-65
2022/07/23 01:17:20;;;;;;;4.67;4.27;;;;;;;;;;4997185;28;20230;-64
2022/07/23 01:19:48;;;;;;;5.53;5.13;;;;;;;;;;4991543;28;20753;-65
2022/07/23 01:22:15;;;;;;;4.70;4.30;;;;;;;;;;5024024;28;20219;-64
2022/07/23 01:24:41;;;;;;;5.10;4.80;;;;;;;;;;5010802;28;20178;-65
2022/07/23 01:27:07;;;;;;;4.70;4.30;;;;;;;;;;5000312;28;20600;-66
2022/07/23 01:29:33;;;;;;;5.60;5.17;;;;;;;;;;5012015;28;20195;-63
2022/07/23 01:31:59;;;;;;;5.93;5.53;;;;;;;;;;5022037;28;20187;-65
2022/07/23 01:34:25;;;;;;;6.73;5.20;;;;;;;;;;4994060;28;20162;-66
2022/07/23 01:36:51;;;;;;;5.13;4.63;;;;;;;;;;5006193;28;20271;-66
2022/07/23 01:39:17;;;;;;;4.80;4.40;;;;;;;;;;5011442;28;20195;-67
2022/07/23 01:41:44;;;;;;;4.73;4.43;;;;;;;;;;5023291;28;20669;-66
2022/07/23 01:44:10;;;;;;;4.97;4.67;;;;;;;;;;5027184;28;20183;-65
2022/07/23 01:46:36;;;;;;;5.20;4.67;;;;;;;;;;5031835;28;20186;-66
2022/07/23 01:49:02;;;;;;;5.33;5.03;;;;;;;;;;5024280;28;20240;-66
2022/07/23 01:51:30;;;;;;;5.17;4.80;;;;;;;;;;5019008;28;20320;-63
2022/07/23 01:53:56;;;;;;;7.23;6.00;;;;;;;;;;5027767;28;20191;-65
2022/07/23 01:56:22;;;;;;;4.90;4.60;;;;;;;;;;5016829;28;20568;-66
2022/07/23 01:58:49;;;;;;;4.73;4.30;;;;;;;;;;5011015;28;20174;-63
2022/07/23 02:01:17;;;;;;;4.70;4.40;;;;;;;;;;4997498;28;20222;-66
2022/07/23 02:03:44;;;;;;;5.37;4.90;;;;;;;;;;5011484;28;20156;-66
2022/07/23 02:06:10;;;;;;;5.87;5.13;;;;;;;;;;4996441;28;20543;-65
2022/07/23 02:08:36;;;;;;;4.83;4.53;;;;;;;;;;5011395;28;20274;-66
2022/07/23 02:11:02;;;;;;;4.57;4.20;;;;;;;;;;5041462;28;20188;-65
2022/07/23 02:13:29;;;;;;;5.37;4.97;;;;;;;;;;5011248;28;20492;-66
2022/07/23 02:15:55;;;;;;;4.70;4.40;;;;;;;;;;5024232;28;20185;-67
2022/07/23 02:18:21;;;;;;;4.87;4.53;;;;;;;;;;5012303;28;20213;-65
2022/07/23 02:20:47;;;;;;;4.87;4.47;;;;;;;;;;5022377;28;20201;-65
2022/07/23 02:23:13;;;;;;;5.43;5.03;;;;;;;;;;5012293;28;20172;-65
2022/07/23 02:25:39;;;;;;;5.20;4.90;;;;;;;;;;5028088;28;20193;-62
2022/07/23 02:28:06;;;;;;;4.83;4.53;;;;;;;;;;5017869;28;20171;-64
2022/07/23 02:30:32;;;;;;;5.10;4.70;;;;;;;;;;5027829;28;20196;-64
2022/07/23 02:32:58;;;;;;;4.83;4.43;;;;;;;;;;5000830;28;20210;-64
2022/07/23 02:35:24;;;;;;;4.87;4.53;;;;;;;;;;5034209;28;20705;-62
2022/07/23 02:37:50;;;;;;;4.87;4.53;;;;;;;;;;5021085;28;20179;-64
2022/07/23 02:40:16;;;;;;;4.50;4.20;;;;;;;;;;5015137;28;20601;-62
2022/07/23 02:42:42;;;;;;;5.37;4.93;;;;;;;;;;5017054;28;20170;-59
2022/07/23 02:45:09;;;;;;;5.23;4.83;;;;;;;;;;5018033;28;20170;-62
2022/07/23 02:47:35;;;;;;;5.53;5.13;;;;;;;;;;5026084;28;20609;-62
2022/07/23 02:50:01;;;;;;;4.93;4.63;;;;;;;;;;5014015;28;20201;-64
2022/07/23 02:52:27;;;;;;;5.93;5.43;;;;;;;;;;5027351;28;20852;-61
2022/07/23 02:54:53;;;;;;;5.10;4.70;;;;;;;;;;5010204;28;20621;-63
2022/07/23 02:57:19;;;;;;;5.10;4.80;;;;;;;;;;5029521;28;20787;-63
2022/07/23 02:59:45;;;;;;;4.77;4.37;;;;;;;;;;4992431;28;20653;-63
2022/07/23 03:02:11;;;;;;;5.03;4.63;;;;;;;;;;5012428;28;20348;-62
2022/07/23 03:04:37;;;;;;;4.93;4.60;;;;;;;;;;5010078;28;20253;-62
2022/07/23 03:07:03;;;;;;;4.77;4.47;;;;;;;;;;5030861;28;20175;-64
2022/07/23 03:09:29;;;;;;;4.97;4.67;;;;;;;;;;5029018;28;20257;-61
2022/07/23 03:11:55;;;;;;;5.27;4.90;;;;;;;;;;5028514;28;20194;-64
2022/07/23 03:14:21;;;;;;;5.63;5.13;;;;;;;;;;5010117;28;20187;-64
2022/07/23 03:16:49;;;;;;;31.53;30.03;;;;;;;;;;5005829;28;20188;-63
2022/07/23 03:19:15;;;;;;;4.63;4.33;;;;;;;;;;5029747;28;20359;-63
2022/07/23 03:21:42;;;;;;;5.53;5.23;;;;;;;;;;5029502;28;20557;-64
2022/07/23 03:24:09;;;;;;;9.43;8.80;;;;;;;;;;4991411;28;20175;-64
2022/07/23 03:26:35;;;;;;;4.90;4.57;;;;;;;;;;5001676;28;20184;-64
2022/07/23 03:29:03;;;;;;;5.63;5.23;;;;;;;;;;5029821;28;20155;-65
2022/07/23 03:31:30;;;;;;;9.93;9.33;;;;;;;;;;5029101;28;20187;-63
2022/07/23 03:33:56;;;;;;;4.77;4.47;;;;;;;;;;5028187;28;20356;-65
2022/07/23 03:36:22;;;;;;;5.43;4.93;;;;;;;;;;5030210;28;20181;-66
2022/07/23 03:38:48;;;;;;;6.37;5.83;;;;;;;;;;5008830;28;20171;-65
2022/07/23 03:41:14;;;;;;;6.43;6.07;;;;;;;;;;5018398;28;20735;-65
2022/07/23 03:43:40;;;;;;;5.20;4.80;;;;;;;;;;5043044;28;20560;-63
2022/07/23 03:46:06;;;;;;;4.77;4.47;;;;;;;;;;5047432;28;20651;-64
2022/07/23 03:48:32;;;;;;;5.87;5.47;;;;;;;;;;4991997;28;20713;-65
2022/07/23 03:50:58;;;;;;;4.90;4.60;;;;;;;;;;5014622;28;20190;-65
2022/07/23 03:53:24;;;;;;;5.10;4.80;;;;;;;;;;4992445;28;20238;-65
2022/07/23 03:55:50;;;;;;;5.17;4.87;;;;;;;;;;5009951;28;20189;-62
2022/07/23 03:58:16;;;;;;;4.80;4.50;;;;;;;;;;5028562;28;20182;-66
2022/07/23 04:00:42;;;;;;;4.80;4.50;;;;;;;;;;5035553;28;20574;-62
2022/07/23 04:03:08;;;;;;;9.27;8.67;;;;;;;;;;4998710;28;20187;-66
2022/07/23 04:05:34;;;;;;;5.27;4.87;;;;;;;;;;5014855;28;20273;-66
2022/07/23 04:08:01;;;;;;;5.07;4.67;;;;;;;;;;5027926;28;20546;-63
2022/07/23 04:10:27;;;;;;;4.67;4.30;;;;;;;;;;5021532;28;20185;-64
2022/07/23 04:12:53;;;;;;;4.60;4.30;;;;;;;;;;5020558;28;20206;-64
2022/07/23 04:15:19;;;;;;;5.00;4.60;;;;;;;;;;5029878;28;20185;-67
2022/07/23 04:17:46;;;;;;;4.83;4.50;;;;;;;;;;5022502;28;20637;-65
2022/07/23 04:20:12;;;;;;;5.73;4.37;;;;;;;;;;5000427;28;20553;-65
2022/07/23 04:22:38;;;;;;;4.70;4.30;;;;;;;;;;5010688;28;20184;-62
2022/07/23 04:25:05;;;;;;;5.90;5.57;;;;;;;;;;5016960;28;20181;-66
2022/07/23 04:27:33;;;;;;;4.80;4.40;;;;;;;;;;5025512;28;20650;-62
2022/07/23 04:29:59;;;;;;;8.00;7.50;;;;;;;;;;5021011;28;20736;-66
2022/07/23 04:32:25;;;;;;;4.57;4.27;;;;;;;;;;5009865;28;20645;-65
2022/07/23 04:34:51;;;;;;;4.40;4.10;;;;;;;;;;5013520;28;20259;-63
2022/07/23 04:37:23;;;;;;;5.50;5.10;;;;;;;;;;5024722;28;20186;-66
2022/07/23 04:39:49;;;;;;;5.43;5.03;;;;;;;;;;5015006;28;20212;-65
2022/07/23 04:42:15;;;;;;;4.60;4.30;;;;;;;;;;5030289;28;20210;-62
2022/07/23 04:44:41;;;;;;;4.13;3.83;;;;;;;;;;5012813;28;20185;-64
2022/07/23 04:47:07;;;;;;;4.93;4.53;;;;;;;;;;5032789;28;20617;-63
2022/07/23 04:49:34;;;;;;;4.17;3.87;;;;;;;;;;5008924;28;20163;-61
2022/07/23 04:52:06;;;;;;;3.97;3.67;;;;;;;;;;5039490;28;20696;-65
2022/07/23 04:54:32;;;;;;;4.40;4.10;;;;;;;;;;5024833;28;20565;-62
2022/07/23 04:56:58;;;;;;;4.13;3.73;;;;;;;;;;4991554;28;20193;-62
2022/07/23 04:59:24;;;;;;;4.93;3.53;;;;;;;;;;5008546;28;20158;-64
2022/07/23 05:01:51;;;;;;;5.57;4.20;;;;;;;;;;5019565;28;20190;-63
2022/07/23 05:04:17;;;;;;;4.60;4.30;;;;;;;;;;5008673;28;20159;-62
2022/07/23 05:06:43;;;;;;;4.23;3.93;;;;;;;;;;4992153;28;20198;-64
2022/07/23 05:09:09;;;;;;;4.70;4.30;;;;;;;;;;5006634;28;20838;-63
2022/07/23 05:11:35;;;;;;;4.53;4.13;;;;;;;;;;5018124;28;20584;-65
2022/07/23 05:14:01;;;;;;;4.43;4.10;;;;;;;;;;5008104;28;20254;-64
2022/07/23 05:16:27;;;;;;;4.07;3.60;;;;;;;;;;5000137;28;20193;-63
2022/07/23 05:18:53;;;;;;;4.40;4.07;;;;;;;;;;5008332;28;20645;-63
2022/07/23 05:21:20;;;;;;;5.77;4.10;;;;;;;;;;5013872;28;20711;-63
2022/07/23 05:23:46;;;;;;;4.53;4.23;;;;;;;;;;5007792;28;20159;-63
2022/07/23 05:26:15;;;;;;;3.90;3.60;;;;;;;;;;5006753;28;20247;-61
2022/07/23 05:28:41;;;;;;;4.73;4.43;;;;;;;;;;5008340;28;20188;-64
2022/07/23 05:31:07;;;;;;;4.67;4.27;;;;;;;;;;5016128;28;20193;-59
2022/07/23 05:33:33;;;;;;;4.30;4.00;;;;;;;;;;5008307;28;20182;-63
2022/07/23 05:36:02;;;;;;;4.50;4.20;;;;;;;;;;5014731;28;20185;-61
2022/07/23 05:38:29;;;;;;;4.47;4.17;;;;;;;;;;5007160;28;20250;-64
2022/07/23 05:40:55;;;;;;;4.30;4.00;;;;;;;;;;4987055;28;20230;-62
2022/07/23 05:43:21;;;;;;;4.53;4.17;;;;;;;;;;5004664;28;20707;-62
2022/07/23 05:45:47;;;;;;;4.10;3.80;;;;;;;;;;5011285;28;20604;-63
2022/07/23 05:48:13;;;;;;;4.70;4.30;;;;;;;;;;5010123;28;20178;-62
2022/07/23 05:50:40;;;;;;;5.07;4.60;;;;;;;;;;5010030;28;20181;-62
2022/07/23 05:53:06;;;;;;;4.23;3.93;;;;;;;;;;5011304;28;20230;-62
2022/07/23 05:55:32;;;;;;;4.50;4.10;;;;;;;;;;5009745;28;20698;-60
2022/07/23 05:57:58;;;;;;;4.17;3.87;;;;;;;;;;5016040;28;20272;-63
2022/07/23 06:00:25;;;;;;;4.53;4.23;;;;;;;;;;5021737;28;20191;-60
2022/07/23 06:02:52;;;;;;;4.43;4.13;;;;;;;;;;5019715;28;20189;-64
2022/07/23 06:05:18;;;;;;;4.97;4.57;;;;;;;;;;5023641;28;20561;-62
2022/07/23 06:07:44;;;;;;;5.27;4.93;;;;;;;;;;5006692;28;20176;-59
2022/07/23 06:10:10;;;;;;;4.23;3.93;;;;;;;;;;5005048;28;20217;-61
2022/07/23 06:12:37;;;;;;;4.90;4.40;;;;;;;;;;5009174;28;20308;-62
2022/07/23 06:15:03;;;;;;;4.47;4.07;;;;;;;;;;5021722;28;20185;-61
2022/07/23 06:17:29;;;;;;;5.00;4.60;;;;;;;;;;5023933;28;20316;-62
2022/07/23 06:19:56;;;;;;;5.27;4.87;;;;;;;;;;5014040;28;20296;-61
2022/07/23 06:22:22;;;;;;;4.70;4.40;;;;;;;;;;5021017;28;20945;-61
2022/07/23 06:24:49;;;;;;;4.73;4.30;;;;;;;;;;5037664;28;20674;-61
2022/07/23 06:27:15;;;;;;;5.37;4.97;;;;;;;;;;5014513;28;20861;-61
2022/07/23 06:29:41;;;;;;;4.73;4.33;;;;;;;;;;5037357;28;20188;-63
2022/07/23 06:32:08;;;;;;;5.67;4.60;;;;;;;;;;5034421;28;20178;-61
2022/07/23 06:34:34;;;;;;;4.63;4.27;;;;;;;;;;5034650;28;20196;-60
2022/07/23 06:37:00;;;;;;;4.70;4.30;;;;;;;;;;5033377;28;20687;-59
2022/07/23 06:39:26;;;;;;;6.40;5.87;;;;;;;;;;4992046;28;20546;-61
2022/07/23 06:41:53;;;;;;;5.70;5.20;;;;;;;;;;5016390;28;20213;-62
2022/07/23 06:44:19;;;;;;;4.33;4.03;;;;;;;;;;5036868;28;20181;-64
2022/07/23 06:46:45;;;;;;;5.10;4.70;;;;;;;;;;5021306;28;20214;-62
2022/07/23 06:49:11;;;;;;;5.10;4.60;;;;;;;;;;4976135;28;20170;-59
2022/07/23 06:51:37;;;;;;;4.77;4.47;;;;;;;;;;5031019;28;20645;-59
2022/07/23 06:54:04;;;;;;;5.27;4.87;;;;;;;;;;5002376;28;20699;-59
2022/07/23 06:56:30;;;;;;;5.57;5.17;;;;;;;;;;4994041;28;20194;-59
2022/07/23 06:58:56;;;;;;;6.30;5.80;;;;;;;;;;5022583;28;20204;-59
2022/07/23 07:01:23;;;;;;;6.10;5.47;;;;;;;;;;5024062;28;20252;-59
2022/07/23 07:03:49;;;;;;;6.47;5.43;;;;;;;;;;4972548;28;20183;-59
2022/07/23 07:06:15;;;;;;;7.03;6.10;;;;;;;;;;4998305;28;20178;-59
2022/07/23 07:08:42;;;;;;;6.17;5.57;;;;;;;;;;5003311;28;20248;-60
2022/07/23 07:11:09;;;;;;;6.03;5.53;;;;;;;;;;5014323;28;20192;-59
2022/07/23 07:13:35;;;;;;;5.93;5.43;;;;;;;;;;5012790;28;20190;-59
2022/07/23 07:16:01;;;;;;;6.87;6.17;;;;;;;;;;5026386;28;20186;-60
2022/07/23 07:18:27;;;;;;;6.60;6.00;;;;;;;;;;4993155;28;20764;-60
2022/07/23 07:20:53;;;;;;;7.00;6.40;;;;;;;;;;5025523;28;20687;-59
2022/07/23 07:23:20;;;;;;;7.13;6.43;;;;;;;;;;4993726;28;20179;-59
2022/07/23 07:25:46;;;;;;;7.43;6.77;;;;;;;;;;5023093;28;20193;-60
2022/07/23 07:28:12;;;;;;;7.00;6.40;;;;;;;;;;5011047;28;20182;-59
2022/07/23 07:30:39;;;;;;;7.67;6.97;;;;;;;;;;5022521;28;20193;-59
2022/07/23 07:33:05;;;;;;;7.00;6.40;;;;;;;;;;4997358;28;20171;-59
2022/07/23 07:35:32;;;;;;;8.90;8.00;;;;;;;;;;5009339;28;20194;-59
2022/07/23 07:37:58;;;;;;;7.30;6.70;;;;;;;;;;4998359;28;20187;-59
2022/07/23 07:40:24;;;;;;;8.80;7.87;;;;;;;;;;5005782;28;20663;-59
2022/07/23 07:42:56;;;;;;;8.13;6.73;;;;;;;;;;5001036;28;20227;-59
2022/07/23 07:45:23;;;;;;;7.83;7.00;;;;;;;;;;4985808;28;20186;-59
2022/07/23 07:47:52;;;;;;;8.67;7.40;;;;;;;;;;5002681;28;20185;-59
2022/07/23 07:50:20;;;;;;;8.50;7.53;;;;;;;;;;5026898;28;20177;-59
2022/07/23 07:52:46;;;;;;;8.67;7.70;;;;;;;;;;4986543;28;20284;-60
2022/07/23 07:55:13;;;;;;;8.90;8.00;;;;;;;;;;5009173;28;20609;-59
2022/07/23 07:57:39;;;;;;;9.03;8.20;;;;;;;;;;5000886;28;20696;-59
2022/07/23 08:00:07;;;;;;;12.93;9.00;;;;;;;;;;4998057;28;20698;-61
2022/07/23 08:02:59;;;;;;;9.37;8.37;;;;;;;;;;5004854;28;20729;-59
2022/07/23 08:05:27;;;;;;;9.73;8.93;;;;;;;;;;4988166;28;20245;-60
2022/07/23 08:07:53;;;;;;;10.10;9.03;;;;;;;;;;4993860;28;20183;-59
2022/07/23 08:10:19;;;;;;;10.87;9.03;;;;;;;;;;5005034;28;20244;-60
2022/07/23 08:12:53;;;;;;;9.33;8.53;;;;;;;;;;5002382;28;20677;-60
2022/07/23 08:15:20;;;;;;;13.03;9.50;;;;;;;;;;5001924;28;20178;-60
2022/07/23 08:17:47;;;;;;;9.40;8.43;;;;;;;;;;4999878;28;20654;-59
2022/07/23 08:20:14;;;;;;;9.57;8.43;;;;;;;;;;5009737;28;20198;-59
2022/07/23 08:22:46;;;;;;;10.00;9.00;;;;;;;;;;5003436;28;20197;-60
2022/07/23 08:25:12;;;;;;;10.00;9.17;;;;;;;;;;5008484;28;20215;-60
2022/07/23 08:27:38;;;;;;;9.07;8.13;;;;;;;;;;5004404;28;20570;-60
2022/07/23 08:30:05;;;;;;;10.47;9.37;;;;;;;;;;5007610;28;20191;-60
2022/07/23 08:32:31;;;;;;;9.50;8.27;;;;;;;;;;5005732;28;20671;-59
2022/07/23 08:34:57;;;;;;;8.30;7.50;;;;;;;;;;5011183;28;20644;-58
2022/07/23 08:37:23;;;;;;;8.50;7.67;;;;;;;;;;5022065;28;20189;-60
2022/07/23 08:39:49;;;;;;;8.90;8.10;;;;;;;;;;5025083;28;20275;-59
2022/07/23 08:42:15;;;;;;;7.70;6.97;;;;;;;;;;5010571;28;20763;-59
2022/07/23 08:44:46;;;;;;;7.97;7.27;;;;;;;;;;5014153;28;20532;-59
2022/07/23 08:47:13;;;;;;;7.50;6.90;;;;;;;;;;5010992;28;20656;-59
2022/07/23 08:49:39;;;;;;;7.38;6.22;;;;;;;;;;5012601;28;20432;-59
2022/07/23 08:52:06;;;;;;;7.37;6.77;;;;;;;;;;5019707;28;20232;-58
2022/07/23 08:54:32;;;;;;;6.90;6.30;;;;;;;;;;5023424;28;20208;-59
2022/07/23 08:56:58;;;;;;;7.50;6.07;;;;;;;;;;5034567;28;20594;-59
2022/07/23 08:59:26;;;;;;;5.57;4.97;;;;;;;;;;5017195;28;20236;-59
2022/07/23 09:01:52;;;;;;;6.10;5.53;;;;;;;;;;5024244;28;20648;-59
2022/07/23 09:04:18;;;;;;;5.93;5.43;;;;;;;;;;5021532;28;20648;-59
2022/07/23 09:06:45;;;;;;;6.30;5.17;;;;;;;;;;5038737;28;20705;-59
2022/07/23 09:09:18;;;;;;;5.90;5.40;;;;;;;;;;5014689;28;20177;-59
2022/07/23 09:11:47;;;;;;;5.90;5.23;;;;;;;;;;5038176;28;20660;-59
2022/07/23 09:14:14;;;;;;;5.37;4.90;;;;;;;;;;5017974;28;20192;-58
2022/07/23 09:16:40;;;;;;;5.40;4.90;;;;;;;;;;5021531;28;20554;-59
2022/07/23 09:19:07;;;;;;;5.07;4.60;;;;;;;;;;5042253;28;20223;-59
2022/07/23 09:21:37;;;;;;;4.70;4.30;;;;;;;;;;5041231;28;20225;-59
2022/07/23 09:24:05;;;;;;;5.83;4.63;;;;;;;;;;5038926;28;20579;-59
2022/07/23 09:26:31;;;;;;;5.17;4.30;;;;;;;;;;5023641;28;20569;-58
2022/07/23 09:28:59;;;;;;;4.47;4.00;;;;;;;;;;5024357;28;20179;-58
2022/07/23 09:31:26;;;;;;;4.63;4.30;;;;;;;;;;5027589;28;20227;-58
2022/07/23 09:33:52;;;;;;;6.57;4.90;;;;;;;;;;5040714;28;20193;-58
2022/07/23 09:36:28;;;;;;;5.30;4.80;;;;;;;;;;5021499;28;20271;-59
2022/07/23 09:38:54;;;;;;;4.87;4.47;;;;;;;;;;5025354;28;20183;-58
2022/07/23 09:41:21;;;;;;;4.63;4.23;;;;;;;;;;5033358;28;20704;-57
2022/07/23 09:43:47;;;;;;;5.27;4.67;;;;;;;;;;5028373;28;20191;-57
2022/07/23 09:46:26;;;;;;;4.90;4.50;;;;;;;;;;5048221;28;20630;-57
2022/07/23 09:48:53;;;;;;;6.23;4.33;;;;;;;;;;4993812;28;20234;-58
2022/07/23 09:53:52;;;;;;;4.40;4.00;;;;;;;;;;5029302;28;20226;-58
2022/07/23 09:56:20;;;;;;;7.00;3.87;;;;;;;;;;5028620;28;20336;-57
2022/07/23 09:58:52;;;;;;;5.57;3.67;;;;;;;;;;5019292;28;20625;-58
2022/07/23 10:01:20;;;;;;;5.43;3.80;;;;;;;;;;5020882;28;20217;-58
2022/07/23 10:03:46;;;;;;;5.27;4.03;;;;;;;;;;4985436;28;20176;-57
2022/07/23 10:06:13;;;;;;;5.17;3.90;;;;;;;;;;5030793;28;20664;-58
2022/07/23 10:08:42;;;;;;;4.77;4.20;;;;;;;;;;5009800;28;20182;-59
2022/07/23 10:11:10;;;;;;;8.53;3.80;;;;;;;;;;5001245;28;20634;-59
2022/07/23 10:16:19;;;;;;;4.20;3.80;;;;;;;;;;5029071;28;20682;-58
2022/07/23 10:18:46;;;;;;;3.63;3.33;;;;;;;;;;5010981;28;20201;-59
2022/07/23 10:21:33;;;;;;;5.20;3.77;;;;;;;;;;5012024;28;20266;-58
2022/07/23 10:24:19;;;;;;;8.80;3.47;;;;;;;;;;5009662;28;20244;-59
2022/07/23 10:26:56;;;;;;;3.73;3.47;;;;;;;;;;5012402;28;20285;-57
2022/07/23 10:29:41;;;;;;;3.93;3.13;;;;;;;;;;5028515;28;20718;-58
2022/07/23 10:32:17;;;;;;;3.87;3.40;;;;;;;;;;5016577;28;20200;-57
2022/07/23 10:34:50;;;;;;;3.43;2.90;;;;;;;;;;5026836;28;20239;-58
2022/07/23 10:37:25;;;;;;;3.70;3.40;;;;;;;;;;5037821;28;20217;-58
2022/07/23 10:40:17;;;;;;;3.27;2.97;;;;;;;;;;5041054;28;20674;-58
2022/07/23 10:42:44;;;;;;;3.80;3.50;;;;;;;;;;4993186;28;20232;-59
2022/07/23 10:45:22;;;;;;;4.77;3.23;;;;;;;;;;5037357;28;20261;-59
2022/07/23 10:47:50;;;;;;;3.00;2.70;;;;;;;;;;5022696;28;20179;-57
2022/07/23 10:50:19;;;;;;;4.77;3.70;;;;;;;;;;5038225;28;20291;-58
2022/07/23 10:53:04;;;;;;;4.27;3.10;;;;;;;;;;5043535;28;20233;-61
2022/07/23 10:55:30;;;;;;;3.60;3.30;;;;;;;;;;5029494;28;20276;-58
2022/07/23 10:57:56;;;;;;;2.97;2.77;;;;;;;;;;5020363;28;20308;-58
2022/07/23 11:00:28;;;;;;;5.20;3.40;;;;;;;;;;5006928;28;20714;-57
2022/07/23 11:02:55;;;;;;;3.47;3.00;;;;;;;;;;5021067;28;20183;-57
2022/07/23 11:05:41;;;;;;;4.10;3.10;;;;;;;;;;5010797;28;20174;-57
2022/07/23 11:08:08;;;;;;;3.50;3.20;;;;;;;;;;5028353;28;20174;-58
2022/07/23 11:10:35;;;;;;;3.27;3.07;;;;;;;;;;5010695;28;20174;-58
2022/07/23 11:13:19;;;;;;;3.20;2.90;;;;;;;;;;4996302;28;20194;-58
2022/07/23 11:16:01;;;;;;;3.50;3.20;;;;;;;;;;5014109;28;20197;-59
2022/07/23 11:18:46;;;;;;;4.13;3.73;;;;;;;;;;5046719;28;20212;-58
2022/07/23 11:21:26;;;;;;;4.37;3.00;;;;;;;;;;5044042;28;20204;-58
2022/07/23 11:23:59;;;;;;;4.17;3.77;;;;;;;;;;5031765;28;20177;-58
2022/07/23 11:26:43;;;;;;;4.80;4.40;;;;;;;;;;5035900;28;20190;-57
2022/07/23 11:29:28;;;;;;;6.73;3.67;;;;;;;;;;5009202;28;20236;-58
2022/07/23 11:31:55;;;;;;;3.30;3.10;;;;;;;;;;5024499;28;20209;-58
2022/07/23 11:34:27;;;;;;;3.50;3.30;;;;;;;;;;5029229;28;20249;-58
2022/07/23 11:36:53;;;;;;;6.77;3.57;;;;;;;;;;5036686;28;20178;-58
2022/07/23 11:39:20;;;;;;;3.60;3.30;;;;;;;;;;5038230;28;20277;-58
2022/07/23 11:41:47;;;;;;;3.83;3.43;;;;;;;;;;5027681;28;20227;-58
2022/07/23 11:44:32;;;;;;;3.77;3.50;;;;;;;;;;5033753;28;20177;-58
2022/07/23 11:47:02;;;;;;;3.60;3.40;;;;;;;;;;5028269;28;20565;-58
2022/07/23 11:49:28;;;;;;;3.70;3.40;;;;;;;;;;5040401;28;20659;-58
2022/07/23 11:52:06;;;;;;;3.50;3.20;;;;;;;;;;5036227;28;20181;-58
2022/07/23 11:54:33;;;;;;;3.40;3.13;;;;;;;;;;5005991;28;20193;-58
2022/07/23 11:57:00;;;;;;;3.73;3.20;;;;;;;;;;5008628;28;20572;-58
2022/07/23 11:59:27;;;;;;;4.33;4.00;;;;;;;;;;4989815;28;20209;-59
2022/07/23 12:01:57;;;;;;;3.83;3.53;;;;;;;;;;5008852;28;20192;-57
2022/07/23 12:04:26;;;;;;;5.23;4.17;;;;;;;;;;5007772;28;20184;-58
2022/07/23 12:06:52;;;;;;;4.20;3.60;;;;;;;;;;5008714;28;20654;-58
2022/07/23 12:09:19;;;;;;;3.53;3.23;;;;;;;;;;5006120;28;20638;-59
2022/07/23 12:12:01;;;;;;;4.63;4.00;;;;;;;;;;5008114;28;20267;-58
2022/07/23 12:14:27;;;;;;;3.50;3.20;;;;;;;;;;5007396;28;20195;-58
2022/07/23 12:17:09;;;;;;;3.97;3.53;;;;;;;;;;5007738;28;20177;-58
2022/07/23 12:19:36;;;;;;;3.83;3.30;;;;;;;;;;5006123;28;20572;-58
2022/07/23 12:22:02;;;;;;;3.13;2.93;;;;;;;;;;5006794;28;20207;-59
2022/07/23 12:24:28;;;;;;;3.30;3.10;;;;;;;;;;5005569;28;20289;-58
2022/07/23 12:27:13;;;;;;;4.07;3.60;;;;;;;;;;5006754;28;20189;-58
2022/07/23 12:29:40;;;;;;;3.53;3.30;;;;;;;;;;5008743;28;20167;-59
2022/07/23 12:32:19;;;;;;;3.30;3.00;;;;;;;;;;5006995;28;20249;-57
2022/07/23 12:34:46;;;;;;;4.07;3.60;;;;;;;;;;5008514;28;20363;-58
2022/07/23 12:37:32;;;;;;;3.67;3.40;;;;;;;;;;5007153;28;20214;-57
2022/07/23 12:39:58;;;;;;;3.80;3.50;;;;;;;;;;4987084;28;20190;-58
2022/07/23 12:42:24;;;;;;;3.67;3.47;;;;;;;;;;5008300;28;20526;-61
2022/07/23 12:45:09;;;;;;;4.20;4.00;;;;;;;;;;5006707;28;20209;-58
2022/07/23 12:47:58;;;;;;;4.23;3.70;;;;;;;;;;5004430;28;20273;-57
2022/07/23 12:50:33;;;;;;;4.00;3.70;;;;;;;;;;5006323;28;20171;-58
2022/07/23 12:53:06;;;;;;;3.83;3.10;;;;;;;;;;5013941;28;20634;-58
2022/07/23 12:55:32;;;;;;;3.40;3.20;;;;;;;;;;5026311;28;20579;-57
2022/07/23 12:58:10;;;;;;;3.80;3.50;;;;;;;;;;5002035;28;20567;-57
2022/07/23 13:00:53;;;;;;;3.50;3.20;;;;;;;;;;5028050;28;20673;-59
2022/07/23 13:03:23;;;;;;;3.70;3.40;;;;;;;;;;5000860;28;20546;-57
2022/07/23 13:05:50;;;;;;;4.00;3.03;;;;;;;;;;5010156;28;20186;-59
2022/07/23 13:08:16;;;;;;;3.63;3.30;;;;;;;;;;5009527;28;20194;-58
2022/07/23 13:10:42;;;;;;;3.73;3.40;;;;;;;;;;4990263;28;20265;-59
2022/07/23 13:13:11;;;;;;;3.57;3.27;;;;;;;;;;4995632;28;20278;-58
2022/07/23 13:15:37;;;;;;;3.73;3.43;;;;;;;;;;5028711;28;20182;-59
2022/07/23 13:18:03;;;;;;;3.40;3.20;;;;;;;;;;5021142;28;20182;-58
2022/07/23 13:20:31;;;;;;;3.63;3.30;;;;;;;;;;5031524;28;20688;-58
2022/07/23 13:22:57;;;;;;;3.77;3.47;;;;;;;;;;5012167;28;20187;-59
2022/07/23 13:25:23;;;;;;;3.60;3.40;;;;;;;;;;5031738;28;20171;-58
2022/07/23 13:27:49;;;;;;;4.07;3.60;;;;;;;;;;5022561;28;20187;-58
2022/07/23 13:30:15;;;;;;;3.83;3.50;;;;;;;;;;5031757;28;20226;-58
2022/07/23 13:32:45;;;;;;;3.80;3.50;;;;;;;;;;5005613;28;20226;-58
2022/07/23 13:35:11;;;;;;;3.70;3.50;;;;;;;;;;5031657;28;20162;-58
2022/07/23 13:37:38;;;;;;;4.60;4.30;;;;;;;;;;5022366;28;20182;-60
2022/07/23 13:40:04;;;;;;;4.30;4.00;;;;;;;;;;5026970;28;20193;-59
2022/07/23 13:42:30;;;;;;;6.27;4.20;;;;;;;;;;5021183;28;20215;-59
2022/07/23 13:44:56;;;;;;;5.27;4.10;;;;;;;;;;5013857;28;20162;-59
2022/07/23 13:47:22;;;;;;;3.67;3.40;;;;;;;;;;5012344;28;20181;-59
2022/07/23 13:49:48;;;;;;;3.63;3.33;;;;;;;;;;4992209;28;20161;-58
2022/07/23 13:52:15;;;;;;;3.30;3.07;;;;;;;;;;5001977;28;20194;-58
2022/07/23 13:54:41;;;;;;;3.50;3.30;;;;;;;;;;5031618;28;20696;-59
2022/07/23 13:57:08;;;;;;;5.03;4.70;;;;;;;;;;5000750;28;20803;-59
2022/07/23 13:59:35;;;;;;;10.67;9.83;;;;;;;;;;5049135;28;20185;-58
2022/07/23 14:02:02;;;;;;;5.03;4.53;;;;;;;;;;5037041;28;20664;-58
2022/07/23 14:04:28;;;;;;;4.67;4.27;;;;;;;;;;5044961;28;20539;-59
2022/07/23 14:06:54;;;;;;;4.27;3.97;;;;;;;;;;5038712;28;20629;-58
2022/07/23 14:09:20;;;;;;;3.77;3.57;;;;;;;;;;5025342;28;20175;-58
2022/07/23 14:11:46;;;;;;;3.97;3.67;;;;;;;;;;5040714;28;20561;-58
2022/07/23 14:14:12;;;;;;;6.03;5.43;;;;;;;;;;5041493;28;20211;-58
2022/07/23 14:16:38;;;;;;;5.13;4.63;;;;;;;;;;5043190;28;20178;-59
2022/07/23 14:19:04;;;;;;;4.27;3.90;;;;;;;;;;5025149;28;20587;-58
2022/07/23 14:21:30;;;;;;;3.97;3.67;;;;;;;;;;5025884;28;20692;-58
2022/07/23 14:23:56;;;;;;;4.80;4.40;;;;;;;;;;5041783;28;20185;-57
2022/07/23 14:26:23;;;;;;;4.00;3.60;;;;;;;;;;5042972;28;20620;-57
2022/07/23 14:28:49;;;;;;;4.27;4.07;;;;;;;;;;5050685;28;20615;-58
2022/07/23 14:31:15;;;;;;;5.53;4.00;;;;;;;;;;5045097;28;20667;-58
2022/07/23 14:33:41;;;;;;;4.67;4.27;;;;;;;;;;5015086;28;20185;-57
2022/07/23 14:36:07;;;;;;;6.03;3.80;;;;;;;;;;5038498;28;20178;-58
2022/07/23 14:38:33;;;;;;;4.10;3.70;;;;;;;;;;5022949;28;20625;-58
2022/07/23 14:40:59;;;;;;;4.18;3.88;;;;;;;;;;5034819;28;20209;-58
2022/07/23 14:43:26;;;;;;;3.72;3.42;;;;;;;;;;4995091;28;20182;-58
2022/07/23 14:45:52;;;;;;;3.90;3.60;;;;;;;;;;5020498;28;20691;-58
2022/07/23 14:48:30;;;;;;;4.72;3.75;;;;;;;;;;5014443;28;20209;-58
2022/07/23 14:50:56;;;;;;;4.27;3.97;;;;;;;;;;4981328;28;20197;-59
2022/07/23 14:53:22;;;;;;;4.50;4.10;;;;;;;;;;5013643;28;20224;-58